sensor_id;sensor_type;location;lat;lon;timestamp;temperature;humidity
14924;DHT22;7554;43.600;1.480;2023-08-20T00:01:56;28.40;1.00
14924;DHT22;7554;43.600;1.480;2023-08-20T00:04:26;28.30;1.00
14924;DHT22;7554;43.600;1.480;2023-08-20T00:06:55;28.30;1.00
14924;DHT22;7554;43.600;1.480;2023-08-20T00:09:22;28.20;1.00
14924;DHT22;7554;43.600;1.480;2023-08-20T00:11:52;28.20;1.00
14924;DHT22;7554;43.600;1.480;2023-08-20T00:14:20;28.20;1.00
14924;DHT22;7554;43.600;1.480;2023-08-20T00:16:48;28.20;1.00
14924;DHT22;7554;43.600;1.480;2023-08-20T00:19:16;28.20;1.00
14924;DHT22;7554;43.600;1.480;2023-08-20T00:21:43;28.20;1.00
14924;DHT22;7554;43.600;1.480;2023-08-20T00:24:14;28.00;1.00
14924;DHT22;7554;43.600;1.480;2023-08-20T00:26:42;27.90;1.00
14924;DHT22;7554;43.600;1.480;2023-08-20T00:29:09;27.80;1.00
14924;DHT22;7554;43.600;1.480;2023-08-20T00:31:36;27.70;1.00
14924;DHT22;7554;43.600;1.480;2023-08-20T00:34:04;27.70;1.00
14924;DHT22;7554;43.600;1.480;2023-08-20T00:36:31;27.60;1.00
14924;DHT22;7554;43.600;1.480;2023-08-20T00:38:58;27.60;1.00
14924;DHT22;7554;43.600;1.480;2023-08-20T00:41:27;27.50;1.00
14924;DHT22;7554;43.600;1.480;2023-08-20T00:43:54;27.40;1.00
14924;DHT22;7554;43.600;1.480;2023-08-20T00:46:22;27.40;1.00
14924;DHT22;7554;43.600;1.480;2023-08-20T00:48:49;27.30;1.00
14924;DHT22;7554;43.600;1.480;2023-08-20T00:51:17;27.20;1.00
14924;DHT22;7554;43.600;1.480;2023-08-20T00:53:45;27.20;1.00
14924;DHT22;7554;43.600;1.480;2023-08-20T00:56:12;27.20;1.00
14924;DHT22;7554;43.600;1.480;2023-08-20T00:58:41;27.20;1.00
14924;DHT22;7554;43.600;1.480;2023-08-20T01:01:09;27.10;1.00
14924;DHT22;7554;43.600;1.480;2023-08-20T01:03:36;27.10;1.00
14924;DHT22;7554;43.600;1.480;2023-08-20T01:06:12;27.10;1.00
14924;DHT22;7554;43.600;1.480;2023-08-20T01:08:47;27.10;1.00
14924;DHT22;7554;43.600;1.480;2023-08-20T01:11:24;27.00;1.00
14924;DHT22;7554;43.600;1.480;2023-08-20T01:13:56;27.00;1.00
14924;DHT22;7554;43.600;1.480;2023-08-20T01:16:25;26.90;1.00
14924;DHT22;7554;43.600;1.480;2023-08-20T01:18:52;26.80;1.00
14924;DHT22;7554;43.600;1.480;2023-08-20T01:21:27;26.80;1.00
14924;DHT22;7554;43.600;1.480;2023-08-20T01:24:10;26.80;1.00
14924;DHT22;7554;43.600;1.480;2023-08-20T01:27:05;26.80;1.00
14924;DHT22;7554;43.600;1.480;2023-08-20T01:29:37;26.80;1.00
14924;DHT22;7554;43.600;1.480;2023-08-20T01:32:07;26.70;1.00
14924;DHT22;7554;43.600;1.480;2023-08-20T01:34:35;26.70;1.00
14924;DHT22;7554;43.600;1.480;2023-08-20T01:37:02;26.60;1.00
14924;DHT22;7554;43.600;1.480;2023-08-20T01:39:29;26.60;1.00
14924;DHT22;7554;43.600;1.480;2023-08-20T01:41:57;26.50;1.00
14924;DHT22;7554;43.600;1.480;2023-08-20T01:44:24;26.50;1.00
14924;DHT22;7554;43.600;1.480;2023-08-20T01:46:53;26.60;1.00
14924;DHT22;7554;43.600;1.480;2023-08-20T01:49:21;26.50;1.00
14924;DHT22;7554;43.600;1.480;2023-08-20T01:51:48;26.50;1.00
14924;DHT22;7554;43.600;1.480;2023-08-20T01:54:15;26.50;1.00
14924;DHT22;7554;43.600;1.480;2023-08-20T01:56:43;26.50;1.00
14924;DHT22;7554;43.600;1.480;2023-08-20T01:59:10;26.40;1.00
14924;DHT22;7554;43.600;1.480;2023-08-20T02:01:38;26.40;1.00
14924;DHT22;7554;43.600;1.480;2023-08-20T02:04:07;26.50;1.00
14924;DHT22;7554;43.600;1.480;2023-08-20T02:06:34;26.40;1.00
14924;DHT22;7554;43.600;1.480;2023-08-20T02:09:01;26.40;1.00
14924;DHT22;7554;43.600;1.480;2023-08-20T02:11:29;26.40;1.00
14924;DHT22;7554;43.600;1.480;2023-08-20T02:14:01;26.30;1.00
14924;DHT22;7554;43.600;1.480;2023-08-20T02:16:28;26.30;1.00
14924;DHT22;7554;43.600;1.480;2023-08-20T02:18:56;26.30;1.00
14924;DHT22;7554;43.600;1.480;2023-08-20T02:21:25;26.20;1.00
14924;DHT22;7554;43.600;1.480;2023-08-20T02:23:52;26.20;1.00
14924;DHT22;7554;43.600;1.480;2023-08-20T02:26:19;26.20;1.00
14924;DHT22;7554;43.600;1.480;2023-08-20T02:28:46;26.20;1.00
14924;DHT22;7554;43.600;1.480;2023-08-20T02:31:14;26.20;1.00
14924;DHT22;7554;43.600;1.480;2023-08-20T02:33:41;26.20;1.00
14924;DHT22;7554;43.600;1.480;2023-08-20T02:36:08;26.10;1.00
14924;DHT22;7554;43.600;1.480;2023-08-20T02:38:38;26.00;1.00
14924;DHT22;7554;43.600;1.480;2023-08-20T02:41:05;26.00;1.00
14924;DHT22;7554;43.600;1.480;2023-08-20T02:43:33;26.00;1.00
14924;DHT22;7554;43.600;1.480;2023-08-20T02:46:00;25.90;1.00
14924;DHT22;7554;43.600;1.480;2023-08-20T02:48:28;25.90;1.00
14924;DHT22;7554;43.600;1.480;2023-08-20T02:50:55;25.70;1.00
14924;DHT22;7554;43.600;1.480;2023-08-20T02:53:22;25.70;1.00
14924;DHT22;7554;43.600;1.480;2023-08-20T02:55:51;25.70;1.00
14924;DHT22;7554;43.600;1.480;2023-08-20T02:58:18;25.70;1.00
14924;DHT22;7554;43.600;1.480;2023-08-20T03:00:46;25.70;1.00
14924;DHT22;7554;43.600;1.480;2023-08-20T03:03:13;25.60;1.00
14924;DHT22;7554;43.600;1.480;2023-08-20T03:05:41;25.70;1.00
14924;DHT22;7554;43.600;1.480;2023-08-20T03:08:09;25.70;1.00
14924;DHT22;7554;43.600;1.480;2023-08-20T03:10:36;25.70;1.00
14924;DHT22;7554;43.600;1.480;2023-08-20T03:13:05;25.70;1.00
14924;DHT22;7554;43.600;1.480;2023-08-20T03:15:32;25.70;1.00
14924;DHT22;7554;43.600;1.480;2023-08-20T03:18:00;25.80;1.00
14924;DHT22;7554;43.600;1.480;2023-08-20T03:20:27;25.70;1.00
14924;DHT22;7554;43.600;1.480;2023-08-20T03:22:56;25.60;1.00
14924;DHT22;7554;43.600;1.480;2023-08-20T03:25:24;25.60;1.00
14924;DHT22;7554;43.600;1.480;2023-08-20T03:27:52;25.60;1.00
14924;DHT22;7554;43.600;1.480;2023-08-20T03:30:21;25.60;1.00
14924;DHT22;7554;43.600;1.480;2023-08-20T03:32:48;25.60;1.00
14924;DHT22;7554;43.600;1.480;2023-08-20T03:35:16;25.60;1.00
14924;DHT22;7554;43.600;1.480;2023-08-20T03:37:43;25.50;1.00
14924;DHT22;7554;43.600;1.480;2023-08-20T03:40:11;25.50;1.00
14924;DHT22;7554;43.600;1.480;2023-08-20T03:42:38;25.50;1.00
14924;DHT22;7554;43.600;1.480;2023-08-20T03:45:06;25.50;1.00
14924;DHT22;7554;43.600;1.480;2023-08-20T03:47:35;25.50;1.00
14924;DHT22;7554;43.600;1.480;2023-08-20T03:50:03;25.50;1.00
14924;DHT22;7554;43.600;1.480;2023-08-20T03:52:31;25.40;1.00
14924;DHT22;7554;43.600;1.480;2023-08-20T03:54:58;25.40;1.00
14924;DHT22;7554;43.600;1.480;2023-08-20T03:57:25;25.40;1.00
14924;DHT22;7554;43.600;1.480;2023-08-20T03:59:52;25.40;1.00
14924;DHT22;7554;43.600;1.480;2023-08-20T04:02:20;25.30;1.00
14924;DHT22;7554;43.600;1.480;2023-08-20T04:04:49;25.30;1.00
14924;DHT22;7554;43.600;1.480;2023-08-20T04:07:17;25.30;1.00
14924;DHT22;7554;43.600;1.480;2023-08-20T04:09:45;25.30;1.00
14924;DHT22;7554;43.600;1.480;2023-08-20T04:12:12;25.20;1.00
14924;DHT22;7554;43.600;1.480;2023-08-20T04:14:39;25.20;1.00
14924;DHT22;7554;43.600;1.480;2023-08-20T04:17:07;25.20;1.00
14924;DHT22;7554;43.600;1.480;2023-08-20T04:19:34;25.20;1.00
14924;DHT22;7554;43.600;1.480;2023-08-20T04:22:03;25.20;1.00
14924;DHT22;7554;43.600;1.480;2023-08-20T04:24:30;25.10;1.00
14924;DHT22;7554;43.600;1.480;2023-08-20T04:26:57;25.20;1.00
14924;DHT22;7554;43.600;1.480;2023-08-20T04:29:25;25.10;1.00
14924;DHT22;7554;43.600;1.480;2023-08-20T04:31:53;25.20;1.00
14924;DHT22;7554;43.600;1.480;2023-08-20T04:34:20;25.10;1.00
14924;DHT22;7554;43.600;1.480;2023-08-20T04:36:47;25.10;1.00
14924;DHT22;7554;43.600;1.480;2023-08-20T04:39:17;25.10;1.00
14924;DHT22;7554;43.600;1.480;2023-08-20T04:41:44;25.00;1.00
14924;DHT22;7554;43.600;1.480;2023-08-20T04:44:12;24.90;1.00
14924;DHT22;7554;43.600;1.480;2023-08-20T04:46:39;25.00;1.00
14924;DHT22;7554;43.600;1.480;2023-08-20T04:49:06;24.90;1.00
14924;DHT22;7554;43.600;1.480;2023-08-20T04:51:34;24.90;1.00
14924;DHT22;7554;43.600;1.480;2023-08-20T04:54:01;24.90;1.00
14924;DHT22;7554;43.600;1.480;2023-08-20T04:56:30;24.90;1.00
14924;DHT22;7554;43.600;1.480;2023-08-20T04:58:57;24.90;1.00
14924;DHT22;7554;43.600;1.480;2023-08-20T05:01:24;24.90;1.00
14924;DHT22;7554;43.600;1.480;2023-08-20T05:03:52;24.90;1.00
14924;DHT22;7554;43.600;1.480;2023-08-20T05:06:19;24.90;1.00
14924;DHT22;7554;43.600;1.480;2023-08-20T05:08:46;24.90;1.00
14924;DHT22;7554;43.600;1.480;2023-08-20T05:11:14;24.90;1.00
14924;DHT22;7554;43.600;1.480;2023-08-20T05:13:45;24.90;1.00
14924;DHT22;7554;43.600;1.480;2023-08-20T05:16:12;25.00;1.00
14924;DHT22;7554;43.600;1.480;2023-08-20T05:18:39;25.20;1.00
14924;DHT22;7554;43.600;1.480;2023-08-20T05:21:07;25.30;1.00
14924;DHT22;7554;43.600;1.480;2023-08-20T05:23:34;25.50;1.00
14924;DHT22;7554;43.600;1.480;2023-08-20T05:26:01;25.80;1.00
14924;DHT22;7554;43.600;1.480;2023-08-20T05:28:28;26.10;1.00
14924;DHT22;7554;43.600;1.480;2023-08-20T05:30:57;26.50;1.00
14924;DHT22;7554;43.600;1.480;2023-08-20T05:33:25;26.80;1.00
14924;DHT22;7554;43.600;1.480;2023-08-20T05:35:52;27.20;1.00
14924;DHT22;7554;43.600;1.480;2023-08-20T05:38:19;27.70;1.00
14924;DHT22;7554;43.600;1.480;2023-08-20T05:40:47;28.10;1.00
14924;DHT22;7554;43.600;1.480;2023-08-20T05:43:14;28.70;1.00
14924;DHT22;7554;43.600;1.480;2023-08-20T05:45:42;29.10;1.00
14924;DHT22;7554;43.600;1.480;2023-08-20T05:48:10;29.60;1.00
14924;DHT22;7554;43.600;1.480;2023-08-20T05:50:38;30.10;1.00
14924;DHT22;7554;43.600;1.480;2023-08-20T05:53:05;30.50;1.00
14924;DHT22;7554;43.600;1.480;2023-08-20T05:55:33;30.80;1.00
14924;DHT22;7554;43.600;1.480;2023-08-20T05:58:00;31.40;1.00
14924;DHT22;7554;43.600;1.480;2023-08-20T06:00:28;31.60;1.00
14924;DHT22;7554;43.600;1.480;2023-08-20T06:02:55;32.00;1.00
14924;DHT22;7554;43.600;1.480;2023-08-20T06:05:24;32.50;1.00
14924;DHT22;7554;43.600;1.480;2023-08-20T06:07:51;33.10;1.00
14924;DHT22;7554;43.600;1.480;2023-08-20T06:10:18;33.50;1.00
14924;DHT22;7554;43.600;1.480;2023-08-20T06:12:45;33.90;1.00
14924;DHT22;7554;43.600;1.480;2023-08-20T06:15:14;34.40;1.00
14924;DHT22;7554;43.600;1.480;2023-08-20T06:17:41;34.70;1.00
14924;DHT22;7554;43.600;1.480;2023-08-20T06:20:09;35.10;1.00
14924;DHT22;7554;43.600;1.480;2023-08-20T06:22:38;35.50;1.00
14924;DHT22;7554;43.600;1.480;2023-08-20T06:25:07;36.00;1.00
14924;DHT22;7554;43.600;1.480;2023-08-20T06:27:34;36.40;1.00
14924;DHT22;7554;43.600;1.480;2023-08-20T06:30:01;36.80;1.00
14924;DHT22;7554;43.600;1.480;2023-08-20T06:32:29;36.90;1.00
14924;DHT22;7554;43.600;1.480;2023-08-20T06:34:56;37.30;1.00
14924;DHT22;7554;43.600;1.480;2023-08-20T06:37:23;37.80;1.00
14924;DHT22;7554;43.600;1.480;2023-08-20T06:39:52;38.10;1.00
14924;DHT22;7554;43.600;1.480;2023-08-20T06:42:19;38.30;1.00
14924;DHT22;7554;43.600;1.480;2023-08-20T06:44:46;38.30;1.00
14924;DHT22;7554;43.600;1.480;2023-08-20T06:47:14;38.60;1.00
14924;DHT22;7554;43.600;1.480;2023-08-20T06:49:41;39.30;1.00
14924;DHT22;7554;43.600;1.480;2023-08-20T06:52:08;39.80;1.00
14924;DHT22;7554;43.600;1.480;2023-08-20T06:54:36;40.00;1.00
14924;DHT22;7554;43.600;1.480;2023-08-20T06:57:05;40.20;1.00
14924;DHT22;7554;43.600;1.480;2023-08-20T06:59:32;40.70;1.00
14924;DHT22;7554;43.600;1.480;2023-08-20T07:01:59;41.00;1.00
14924;DHT22;7554;43.600;1.480;2023-08-20T07:04:26;41.00;1.00
14924;DHT22;7554;43.600;1.480;2023-08-20T07:06:54;41.70;1.00
14924;DHT22;7554;43.600;1.480;2023-08-20T07:09:21;41.90;1.00
14924;DHT22;7554;43.600;1.480;2023-08-20T07:11:48;42.30;1.00
14924;DHT22;7554;43.600;1.480;2023-08-20T07:14:17;42.80;1.00
14924;DHT22;7554;43.600;1.480;2023-08-20T07:16:44;42.80;1.00
14924;DHT22;7554;43.600;1.480;2023-08-20T07:19:12;43.20;1.00
14924;DHT22;7554;43.600;1.480;2023-08-20T07:21:39;42.80;1.00
14924;DHT22;7554;43.600;1.480;2023-08-20T07:24:07;43.30;1.00
14924;DHT22;7554;43.600;1.480;2023-08-20T07:26:34;43.30;1.00
14924;DHT22;7554;43.600;1.480;2023-08-20T07:29:01;43.80;1.00
14924;DHT22;7554;43.600;1.480;2023-08-20T07:31:32;43.40;1.00
14924;DHT22;7554;43.600;1.480;2023-08-20T07:34:01;43.60;1.00
14924;DHT22;7554;43.600;1.480;2023-08-20T07:36:29;43.70;1.00
14924;DHT22;7554;43.600;1.480;2023-08-20T07:38:56;44.50;1.00
14924;DHT22;7554;43.600;1.480;2023-08-20T07:41:23;44.70;1.00
14924;DHT22;7554;43.600;1.480;2023-08-20T07:43:51;44.90;1.00
14924;DHT22;7554;43.600;1.480;2023-08-20T07:46:19;45.10;1.00
14924;DHT22;7554;43.600;1.480;2023-08-20T07:48:48;45.60;1.00
14924;DHT22;7554;43.600;1.480;2023-08-20T07:51:15;45.80;1.00
14924;DHT22;7554;43.600;1.480;2023-08-20T07:53:42;46.20;1.00
14924;DHT22;7554;43.600;1.480;2023-08-20T07:56:10;45.90;1.00
14924;DHT22;7554;43.600;1.480;2023-08-20T07:58:37;46.10;1.00
14924;DHT22;7554;43.600;1.480;2023-08-20T08:01:04;46.10;1.00
14924;DHT22;7554;43.600;1.480;2023-08-20T08:03:32;46.30;1.00
14924;DHT22;7554;43.600;1.480;2023-08-20T08:06:00;46.60;1.00
14924;DHT22;7554;43.600;1.480;2023-08-20T08:08:28;46.50;1.00
14924;DHT22;7554;43.600;1.480;2023-08-20T08:10:55;47.00;1.00
14924;DHT22;7554;43.600;1.480;2023-08-20T08:13:23;47.10;1.00
14924;DHT22;7554;43.600;1.480;2023-08-20T08:15:50;47.50;1.00
14924;DHT22;7554;43.600;1.480;2023-08-20T08:18:18;47.60;1.00
14924;DHT22;7554;43.600;1.480;2023-08-20T08:20:46;47.60;1.00
14924;DHT22;7554;43.600;1.480;2023-08-20T08:23:15;47.80;1.00
14924;DHT22;7554;43.600;1.480;2023-08-20T08:25:42;47.80;1.00
14924;DHT22;7554;43.600;1.480;2023-08-20T08:28:09;47.80;1.00
14924;DHT22;7554;43.600;1.480;2023-08-20T08:30:37;48.20;1.00
14924;DHT22;7554;43.600;1.480;2023-08-20T08:33:06;48.60;1.00
14924;DHT22;7554;43.600;1.480;2023-08-20T08:35:33;48.50;1.00
14924;DHT22;7554;43.600;1.480;2023-08-20T08:38:00;48.40;1.00
14924;DHT22;7554;43.600;1.480;2023-08-20T08:40:31;48.90;1.00
14924;DHT22;7554;43.600;1.480;2023-08-20T08:42:58;49.00;1.00
14924;DHT22;7554;43.600;1.480;2023-08-20T08:45:26;49.00;1.00
14924;DHT22;7554;43.600;1.480;2023-08-20T08:47:54;49.00;1.00
14924;DHT22;7554;43.600;1.480;2023-08-20T08:50:22;48.90;1.00
14924;DHT22;7554;43.600;1.480;2023-08-20T08:52:51;48.90;1.00
14924;DHT22;7554;43.600;1.480;2023-08-20T08:55:19;49.10;1.00
14924;DHT22;7554;43.600;1.480;2023-08-20T08:57:47;49.10;1.00
14924;DHT22;7554;43.600;1.480;2023-08-20T09:00:15;49.10;1.00
14924;DHT22;7554;43.600;1.480;2023-08-20T09:02:43;48.90;1.00
14924;DHT22;7554;43.600;1.480;2023-08-20T09:05:12;48.80;1.00
14924;DHT22;7554;43.600;1.480;2023-08-20T09:07:42;49.20;1.00
14924;DHT22;7554;43.600;1.480;2023-08-20T09:10:10;49.00;1.00
14924;DHT22;7554;43.600;1.480;2023-08-20T09:12:38;48.90;1.00
14924;DHT22;7554;43.600;1.480;2023-08-20T09:15:11;49.30;1.00
14924;DHT22;7554;43.600;1.480;2023-08-20T09:17:40;49.10;1.00
14924;DHT22;7554;43.600;1.480;2023-08-20T09:20:08;48.90;1.00
14924;DHT22;7554;43.600;1.480;2023-08-20T09:22:36;48.40;1.00
14924;DHT22;7554;43.600;1.480;2023-08-20T09:25:04;47.70;1.00
14924;DHT22;7554;43.600;1.480;2023-08-20T09:27:38;47.10;1.00
14924;DHT22;7554;43.600;1.480;2023-08-20T09:30:07;45.40;1.00
14924;DHT22;7554;43.600;1.480;2023-08-20T09:32:37;44.40;1.00
14924;DHT22;7554;43.600;1.480;2023-08-20T09:35:05;43.00;1.00
14924;DHT22;7554;43.600;1.480;2023-08-20T09:37:34;41.30;1.00
14924;DHT22;7554;43.600;1.480;2023-08-20T09:40:01;40.00;1.00
14924;DHT22;7554;43.600;1.480;2023-08-20T09:42:31;39.20;1.00
14924;DHT22;7554;43.600;1.480;2023-08-20T09:45:02;38.60;1.00
14924;DHT22;7554;43.600;1.480;2023-08-20T09:47:32;38.40;1.00
14924;DHT22;7554;43.600;1.480;2023-08-20T09:50:02;38.50;1.00
14924;DHT22;7554;43.600;1.480;2023-08-20T09:52:37;38.10;1.00
14924;DHT22;7554;43.600;1.480;2023-08-20T09:55:08;37.90;1.00
14924;DHT22;7554;43.600;1.480;2023-08-20T09:57:38;38.00;1.00
14924;DHT22;7554;43.600;1.480;2023-08-20T10:00:06;38.30;1.00
14924;DHT22;7554;43.600;1.480;2023-08-20T10:02:35;37.90;1.00
14924;DHT22;7554;43.600;1.480;2023-08-20T10:05:05;37.70;1.00
14924;DHT22;7554;43.600;1.480;2023-08-20T10:07:34;37.90;1.00
14924;DHT22;7554;43.600;1.480;2023-08-20T10:10:03;38.00;1.00
14924;DHT22;7554;43.600;1.480;2023-08-20T10:12:31;37.90;1.00
14924;DHT22;7554;43.600;1.480;2023-08-20T10:14:59;37.90;1.00
14924;DHT22;7554;43.600;1.480;2023-08-20T10:17:29;37.70;1.00
14924;DHT22;7554;43.600;1.480;2023-08-20T10:19:58;37.60;1.00
14924;DHT22;7554;43.600;1.480;2023-08-20T10:22:35;37.10;1.00
14924;DHT22;7554;43.600;1.480;2023-08-20T10:25:06;37.00;1.00
14924;DHT22;7554;43.600;1.480;2023-08-20T10:27:35;36.60;1.00
14924;DHT22;7554;43.600;1.480;2023-08-20T10:30:08;36.90;1.00
14924;DHT22;7554;43.600;1.480;2023-08-20T10:32:45;37.10;1.00
14924;DHT22;7554;43.600;1.480;2023-08-20T10:35:13;36.50;1.00
14924;DHT22;7554;43.600;1.480;2023-08-20T10:40:52;37.20;1.00
14924;DHT22;7554;43.600;1.480;2023-08-20T10:43:29;37.20;1.00
14924;DHT22;7554;43.600;1.480;2023-08-20T10:46:07;37.10;1.00
14924;DHT22;7554;43.600;1.480;2023-08-20T10:48:36;37.00;1.00
14924;DHT22;7554;43.600;1.480;2023-08-20T10:51:11;37.00;1.00
14924;DHT22;7554;43.600;1.480;2023-08-20T10:53:39;37.10;1.00
14924;DHT22;7554;43.600;1.480;2023-08-20T10:56:22;37.00;1.00
14924;DHT22;7554;43.600;1.480;2023-08-20T10:58:49;37.10;1.00
14924;DHT22;7554;43.600;1.480;2023-08-20T11:01:21;36.80;1.00
14924;DHT22;7554;43.600;1.480;2023-08-20T11:03:50;36.80;1.00
14924;DHT22;7554;43.600;1.480;2023-08-20T11:06:18;36.80;1.00
14924;DHT22;7554;43.600;1.480;2023-08-20T11:08:46;37.10;1.00
14924;DHT22;7554;43.600;1.480;2023-08-20T11:11:13;37.10;1.00
14924;DHT22;7554;43.600;1.480;2023-08-20T11:13:42;37.00;1.00
14924;DHT22;7554;43.600;1.480;2023-08-20T11:16:09;36.90;1.00
14924;DHT22;7554;43.600;1.480;2023-08-20T11:18:37;36.90;1.00
14924;DHT22;7554;43.600;1.480;2023-08-20T11:21:05;37.00;1.00
14924;DHT22;7554;43.600;1.480;2023-08-20T11:23:32;36.90;1.00
14924;DHT22;7554;43.600;1.480;2023-08-20T11:26:00;36.70;1.00
14924;DHT22;7554;43.600;1.480;2023-08-20T11:28:28;36.90;1.00
14924;DHT22;7554;43.600;1.480;2023-08-20T11:30:57;37.10;1.00
14924;DHT22;7554;43.600;1.480;2023-08-20T11:33:24;36.70;1.00
14924;DHT22;7554;43.600;1.480;2023-08-20T11:35:52;36.50;1.00
14924;DHT22;7554;43.600;1.480;2023-08-20T11:38:22;36.20;1.00
14924;DHT22;7554;43.600;1.480;2023-08-20T11:40:50;36.50;1.00
14924;DHT22;7554;43.600;1.480;2023-08-20T11:43:17;36.70;1.00
14924;DHT22;7554;43.600;1.480;2023-08-20T11:45:46;36.80;1.00
14924;DHT22;7554;43.600;1.480;2023-08-20T11:48:15;36.70;1.00
14924;DHT22;7554;43.600;1.480;2023-08-20T11:50:43;36.40;1.00
14924;DHT22;7554;43.600;1.480;2023-08-20T11:53:10;36.30;1.00
14924;DHT22;7554;43.600;1.480;2023-08-20T11:55:41;36.20;1.00
14924;DHT22;7554;43.600;1.480;2023-08-20T11:58:12;36.30;1.00
14924;DHT22;7554;43.600;1.480;2023-08-20T12:00:40;36.20;1.00
14924;DHT22;7554;43.600;1.480;2023-08-20T12:03:08;36.30;1.00
14924;DHT22;7554;43.600;1.480;2023-08-20T12:05:41;36.50;1.00
14924;DHT22;7554;43.600;1.480;2023-08-20T12:08:15;35.80;1.00
14924;DHT22;7554;43.600;1.480;2023-08-20T12:10:43;36.10;1.00
14924;DHT22;7554;43.600;1.480;2023-08-20T12:13:10;36.10;1.00
14924;DHT22;7554;43.600;1.480;2023-08-20T12:15:38;36.20;1.00
14924;DHT22;7554;43.600;1.480;2023-08-20T12:18:06;36.40;1.00
14924;DHT22;7554;43.600;1.480;2023-08-20T12:20:35;36.20;1.00
14924;DHT22;7554;43.600;1.480;2023-08-20T12:23:05;36.30;1.00
14924;DHT22;7554;43.600;1.480;2023-08-20T12:25:34;36.50;1.00
14924;DHT22;7554;43.600;1.480;2023-08-20T12:28:02;36.50;1.00
14924;DHT22;7554;43.600;1.480;2023-08-20T12:30:30;36.60;1.00
14924;DHT22;7554;43.600;1.480;2023-08-20T12:32:57;36.60;1.00
14924;DHT22;7554;43.600;1.480;2023-08-20T12:35:25;36.60;1.00
14924;DHT22;7554;43.600;1.480;2023-08-20T12:37:52;36.50;1.00
14924;DHT22;7554;43.600;1.480;2023-08-20T12:40:21;36.40;1.00
14924;DHT22;7554;43.600;1.480;2023-08-20T12:42:48;36.40;1.00
14924;DHT22;7554;43.600;1.480;2023-08-20T12:45:15;36.00;1.00
14924;DHT22;7554;43.600;1.480;2023-08-20T12:47:43;36.00;1.00
14924;DHT22;7554;43.600;1.480;2023-08-20T12:50:10;35.90;1.00
14924;DHT22;7554;43.600;1.480;2023-08-20T12:52:39;36.00;1.00
14924;DHT22;7554;43.600;1.480;2023-08-20T12:55:07;36.10;1.00
14924;DHT22;7554;43.600;1.480;2023-08-20T12:57:36;36.30;1.00
14924;DHT22;7554;43.600;1.480;2023-08-20T13:00:04;36.30;1.00
14924;DHT22;7554;43.600;1.480;2023-08-20T13:02:37;36.10;1.00
14924;DHT22;7554;43.600;1.480;2023-08-20T13:05:05;36.10;1.00
14924;DHT22;7554;43.600;1.480;2023-08-20T13:07:35;36.20;1.00
14924;DHT22;7554;43.600;1.480;2023-08-20T13:10:03;36.20;1.00
14924;DHT22;7554;43.600;1.480;2023-08-20T13:12:32;36.00;1.00
14924;DHT22;7554;43.600;1.480;2023-08-20T13:15:02;35.90;1.00
14924;DHT22;7554;43.600;1.480;2023-08-20T13:17:31;35.90;1.00
14924;DHT22;7554;43.600;1.480;2023-08-20T13:19:58;35.90;1.00
14924;DHT22;7554;43.600;1.480;2023-08-20T13:22:26;35.90;1.00
14924;DHT22;7554;43.600;1.480;2023-08-20T13:24:53;35.60;1.00
14924;DHT22;7554;43.600;1.480;2023-08-20T13:27:20;35.80;1.00
14924;DHT22;7554;43.600;1.480;2023-08-20T13:29:48;35.90;1.00
14924;DHT22;7554;43.600;1.480;2023-08-20T13:32:18;35.90;1.00
14924;DHT22;7554;43.600;1.480;2023-08-20T13:34:45;36.00;1.00
14924;DHT22;7554;43.600;1.480;2023-08-20T13:37:13;35.90;1.00
14924;DHT22;7554;43.600;1.480;2023-08-20T13:39:40;36.00;1.00
14924;DHT22;7554;43.600;1.480;2023-08-20T13:42:07;35.90;1.00
14924;DHT22;7554;43.600;1.480;2023-08-20T13:44:35;35.90;1.00
14924;DHT22;7554;43.600;1.480;2023-08-20T13:47:02;35.80;1.00
14924;DHT22;7554;43.600;1.480;2023-08-20T13:49:31;35.90;1.00
14924;DHT22;7554;43.600;1.480;2023-08-20T13:51:58;36.00;1.00
14924;DHT22;7554;43.600;1.480;2023-08-20T13:54:25;36.00;1.00
14924;DHT22;7554;43.600;1.480;2023-08-20T13:56:53;36.00;1.00
14924;DHT22;7554;43.600;1.480;2023-08-20T13:59:20;36.00;1.00
14924;DHT22;7554;43.600;1.480;2023-08-20T14:01:47;36.10;1.00
14924;DHT22;7554;43.600;1.480;2023-08-20T14:04:15;36.10;1.00
14924;DHT22;7554;43.600;1.480;2023-08-20T14:06:43;36.10;1.00
14924;DHT22;7554;43.600;1.480;2023-08-20T14:09:11;36.10;1.00
14924;DHT22;7554;43.600;1.480;2023-08-20T14:11:38;36.10;1.00
14924;DHT22;7554;43.600;1.480;2023-08-20T14:14:05;36.20;1.00
14924;DHT22;7554;43.600;1.480;2023-08-20T14:16:33;36.30;1.00
14924;DHT22;7554;43.600;1.480;2023-08-20T14:19:00;36.20;1.00
14924;DHT22;7554;43.600;1.480;2023-08-20T14:21:27;36.10;1.00
14924;DHT22;7554;43.600;1.480;2023-08-20T14:23:56;36.10;1.00
14924;DHT22;7554;43.600;1.480;2023-08-20T14:26:23;36.10;1.00
14924;DHT22;7554;43.600;1.480;2023-08-20T14:28:51;36.20;1.00
14924;DHT22;7554;43.600;1.480;2023-08-20T14:31:18;36.20;1.00
14924;DHT22;7554;43.600;1.480;2023-08-20T14:33:46;36.20;1.00
14924;DHT22;7554;43.600;1.480;2023-08-20T14:36:13;36.30;1.00
14924;DHT22;7554;43.600;1.480;2023-08-20T14:38:41;36.10;1.00
14924;DHT22;7554;43.600;1.480;2023-08-20T14:41:09;36.20;1.00
14924;DHT22;7554;43.600;1.480;2023-08-20T14:43:37;36.20;1.00
14924;DHT22;7554;43.600;1.480;2023-08-20T14:46:04;36.30;1.00
14924;DHT22;7554;43.600;1.480;2023-08-20T14:48:31;36.30;1.00
14924;DHT22;7554;43.600;1.480;2023-08-20T14:51:00;36.30;1.00
14924;DHT22;7554;43.600;1.480;2023-08-20T14:53:28;36.30;1.00
14924;DHT22;7554;43.600;1.480;2023-08-20T14:55:56;36.30;1.00
14924;DHT22;7554;43.600;1.480;2023-08-20T14:58:25;36.30;1.00
14924;DHT22;7554;43.600;1.480;2023-08-20T15:00:52;36.30;1.00
14924;DHT22;7554;43.600;1.480;2023-08-20T15:03:19;36.30;1.00
14924;DHT22;7554;43.600;1.480;2023-08-20T15:05:47;36.30;1.00
14924;DHT22;7554;43.600;1.480;2023-08-20T15:08:14;36.30;1.00
14924;DHT22;7554;43.600;1.480;2023-08-20T15:10:41;36.10;1.00
14924;DHT22;7554;43.600;1.480;2023-08-20T15:13:09;36.10;1.00
14924;DHT22;7554;43.600;1.480;2023-08-20T15:15:38;36.20;1.00
14924;DHT22;7554;43.600;1.480;2023-08-20T15:18:05;36.30;1.00
14924;DHT22;7554;43.600;1.480;2023-08-20T15:20:33;36.20;1.00
14924;DHT22;7554;43.600;1.480;2023-08-20T15:23:00;36.20;1.00
14924;DHT22;7554;43.600;1.480;2023-08-20T15:25:27;36.20;1.00
14924;DHT22;7554;43.600;1.480;2023-08-20T15:27:55;36.20;1.00
14924;DHT22;7554;43.600;1.480;2023-08-20T15:30:22;36.20;1.00
14924;DHT22;7554;43.600;1.480;2023-08-20T15:32:52;36.10;1.00
14924;DHT22;7554;43.600;1.480;2023-08-20T15:35:19;36.10;1.00
14924;DHT22;7554;43.600;1.480;2023-08-20T15:37:47;36.10;1.00
14924;DHT22;7554;43.600;1.480;2023-08-20T15:40:15;36.10;1.00
14924;DHT22;7554;43.600;1.480;2023-08-20T15:42:42;36.10;1.00
14924;DHT22;7554;43.600;1.480;2023-08-20T15:45:09;36.10;1.00
14924;DHT22;7554;43.600;1.480;2023-08-20T15:47:37;36.10;1.00
14924;DHT22;7554;43.600;1.480;2023-08-20T15:50:07;36.10;1.00
14924;DHT22;7554;43.600;1.480;2023-08-20T15:52:34;36.10;1.00
14924;DHT22;7554;43.600;1.480;2023-08-20T15:55:02;36.10;1.00
14924;DHT22;7554;43.600;1.480;2023-08-20T15:57:30;36.10;1.00
14924;DHT22;7554;43.600;1.480;2023-08-20T15:59:57;36.10;1.00
14924;DHT22;7554;43.600;1.480;2023-08-20T16:02:24;36.00;1.00
14924;DHT22;7554;43.600;1.480;2023-08-20T16:04:52;35.90;1.00
14924;DHT22;7554;43.600;1.480;2023-08-20T16:07:21;35.90;1.00
14924;DHT22;7554;43.600;1.480;2023-08-20T16:09:48;36.00;1.00
14924;DHT22;7554;43.600;1.480;2023-08-20T16:12:16;36.00;1.00